LKTB/BRQ METAR and TAF weather

Enter ICAO airport designator
Station Type Date Time Source
LKTB METAR 2018/12/11 20:30 UTC NOAA

LKTB 112030Z 29008KT CAVOK 01/M00 Q1015 R27/29//95 NOSIG


Station Type Date Time Source
LKTB Decoded METAR 2018/12/11 20:30 UTC NOAA

Brno / Turany, Czech Republic (LKTB) 49-09N 016-42E 246M
Dec 11, 2018 - 03:30 PM EST / 2018.12.11 2030 UTC
Wind: from the WNW (290 degrees) at 9 MPH (8 KT):0
Visibility: greater than 7 mile(s):0
Temperature: 33 F (1 C)
Windchill: 24 F (-4 C):1
Dew Point: 32 F (0 C)
Relative Humidity: 93%
Pressure (altimeter): 29.97 in. Hg (1015 hPa)
ob: LKTB 112030Z 29008KT CAVOK 01/M00 Q1015 R27/29//95 NOSIG
cycle: 20

Station Type Date Time Source
LKTB TAF 2018/12/11 18:05 UTC NOAA

TAF LKTB 111700Z 1118/1300 29007KT 9999 BKN025
TEMPO 1118/1218 4000 -RASN BKN014


Example: see airport list